createdAt,value
2023-04-07T00:00:43.070Z,5.03
2023-04-07T00:03:11.406Z,5.43
2023-04-07T00:05:38.675Z,5.05
2023-04-07T00:08:05.992Z,5.22
2023-04-07T00:10:34.499Z,5.32
2023-04-07T00:13:02.064Z,4.13
2023-04-07T00:15:29.259Z,5.20
2023-04-07T00:17:56.551Z,3.88
2023-04-07T00:20:23.964Z,5.40
2023-04-07T00:22:51.171Z,4.45
2023-04-07T00:25:18.453Z,4.00
2023-04-07T00:27:46.961Z,5.13
2023-04-07T00:30:15.215Z,4.50
2023-04-07T00:32:42.410Z,4.70
2023-04-07T00:37:39.749Z,4.10
2023-04-07T00:40:07.552Z,3.70
2023-04-07T00:42:34.750Z,4.88
2023-04-07T00:45:03.267Z,3.83
2023-04-07T00:47:30.559Z,3.35
2023-04-07T00:49:57.797Z,4.22
2023-04-07T00:52:28.828Z,3.47
2023-04-07T00:54:56.269Z,4.15
2023-04-07T00:57:23.658Z,3.67
2023-04-07T00:59:50.872Z,3.20
2023-04-07T01:02:20.070Z,2.90
2023-04-07T01:04:48.249Z,4.53
2023-04-07T01:07:16.749Z,3.38
2023-04-07T01:09:46.348Z,3.22
2023-04-07T01:12:13.840Z,3.17
2023-04-07T01:14:41.482Z,2.85
2023-04-07T01:17:08.716Z,3.78
2023-04-07T01:19:37.514Z,2.90
2023-04-07T01:22:05.394Z,3.33
2023-04-07T01:24:40.348Z,3.20
2023-04-07T01:27:12.185Z,3.15
2023-04-07T01:29:41.479Z,4.47
2023-04-07T01:32:08.824Z,3.73
2023-04-07T01:34:36.254Z,3.35
2023-04-07T01:37:03.510Z,3.58
2023-04-07T01:39:30.759Z,4.10
2023-04-07T01:41:58.290Z,3.65
2023-04-07T01:44:25.670Z,2.95
2023-04-07T01:46:54.232Z,2.97
2023-04-07T01:49:21.440Z,3.85
2023-04-07T01:51:50.156Z,3.17
2023-04-07T01:54:17.560Z,3.40
2023-04-07T01:56:44.939Z,3.33
2023-04-07T01:59:12.141Z,3.15
2023-04-07T02:01:39.509Z,3.20
2023-04-07T02:04:09.509Z,3.20
2023-04-07T02:06:52.583Z,3.60
2023-04-07T02:09:20.294Z,2.92
2023-04-07T02:11:47.511Z,3.42
2023-04-07T02:14:14.724Z,2.88
2023-04-07T02:16:42.546Z,3.30
2023-04-07T02:19:11.128Z,3.67
2023-04-07T02:21:38.352Z,3.55
2023-04-07T02:24:06.572Z,3.85
2023-04-07T02:26:35.407Z,3.60
2023-04-07T02:29:02.833Z,3.40
2023-04-07T02:31:30.115Z,5.18
2023-04-07T02:33:57.351Z,3.95
2023-04-07T02:36:26.293Z,4.18
2023-04-07T02:38:53.493Z,3.88
2023-04-07T02:41:21.277Z,5.05
2023-04-07T02:43:48.485Z,5.13
2023-04-07T02:46:16.686Z,4.72
2023-04-07T02:48:44.011Z,3.83
2023-04-07T02:51:11.238Z,4.55
2023-04-07T02:53:39.766Z,3.65
2023-04-07T02:56:07.128Z,4.43
2023-04-07T02:58:34.323Z,4.70
2023-04-07T03:01:01.535Z,4.65
2023-04-07T03:03:29.111Z,5.75
2023-04-07T03:05:56.437Z,5.10
2023-04-07T03:08:23.630Z,4.18
2023-04-07T03:10:52.209Z,4.68
2023-04-07T03:13:19.693Z,4.55
2023-04-07T03:15:47.295Z,4.72
2023-04-07T03:18:14.526Z,4.50
2023-04-07T03:20:42.456Z,4.72
2023-04-07T03:23:09.691Z,5.18
2023-04-07T03:25:37.120Z,4.40
2023-04-07T03:28:05.855Z,3.78
2023-04-07T03:30:33.119Z,4.55
2023-04-07T03:33:00.363Z,4.35
2023-04-07T03:35:27.674Z,4.25
2023-04-07T03:37:54.879Z,4.78
2023-04-07T03:40:22.119Z,4.15
2023-04-07T03:42:49.332Z,4.30
2023-04-07T03:45:17.904Z,4.93
2023-04-07T03:47:45.185Z,4.95
2023-04-07T03:50:12.416Z,4.47
2023-04-07T03:52:39.620Z,3.90
2023-04-07T03:55:07.540Z,5.00
2023-04-07T03:57:34.743Z,4.93
2023-04-07T04:00:01.943Z,4.00
2023-04-07T04:02:30.671Z,4.50
2023-04-07T04:04:57.933Z,4.00
2023-04-07T04:07:26.219Z,4.57
2023-04-07T04:09:53.408Z,4.15
2023-04-07T04:12:20.739Z,3.88
2023-04-07T04:14:47.959Z,4.30
2023-04-07T04:17:15.358Z,4.43
2023-04-07T04:19:43.874Z,4.13
2023-04-07T04:22:11.281Z,4.47
2023-04-07T04:24:38.756Z,5.32
2023-04-07T04:27:06.063Z,5.13
2023-04-07T04:29:33.316Z,4.47
2023-04-07T04:32:00.584Z,4.63
2023-04-07T04:34:27.792Z,5.13
2023-04-07T04:36:56.322Z,4.75
2023-04-07T04:39:23.698Z,3.95
2023-04-07T04:41:50.928Z,3.97
2023-04-07T04:44:18.148Z,4.32
2023-04-07T04:46:45.377Z,3.92
2023-04-07T04:49:12.616Z,4.13
2023-04-07T04:51:39.823Z,4.60
2023-04-07T04:54:08.557Z,4.57
2023-04-07T04:56:35.853Z,4.63
2023-04-07T04:59:03.258Z,4.18
2023-04-07T05:01:32.758Z,3.75
2023-04-07T05:06:28.297Z,3.67
2023-04-07T05:08:55.494Z,3.75
2023-04-07T05:11:24.009Z,4.20
2023-04-07T05:13:51.324Z,3.92
2023-04-07T05:16:18.692Z,3.92
2023-04-07T05:18:45.963Z,4.40
2023-04-07T05:21:13.166Z,4.47
2023-04-07T05:23:40.521Z,4.60
2023-04-07T05:26:07.758Z,4.25
2023-04-07T05:28:36.286Z,4.45
2023-04-07T05:31:05.084Z,3.63
2023-04-07T05:33:34.185Z,4.72
2023-04-07T05:36:01.500Z,3.42
2023-04-07T05:38:28.739Z,4.55
2023-04-07T05:40:55.959Z,3.72
2023-04-07T05:43:23.159Z,4.90
2023-04-07T05:45:51.773Z,3.83
2023-04-07T05:48:19.017Z,4.45
2023-04-07T05:50:46.236Z,5.05
2023-04-07T05:53:13.472Z,4.18
2023-04-07T05:55:42.975Z,4.53
2023-04-07T05:58:10.231Z,4.57
2023-04-07T06:00:37.472Z,4.35
2023-04-07T06:03:06.195Z,4.38
2023-04-07T06:05:34.673Z,3.97
2023-04-07T06:08:01.918Z,4.38
2023-04-07T06:10:29.174Z,4.78
2023-04-07T06:12:56.481Z,4.65
2023-04-07T06:15:23.672Z,4.70
2023-04-07T06:17:51.189Z,4.28
2023-04-07T06:20:21.458Z,4.85
2023-04-07T06:22:48.662Z,6.18
2023-04-07T06:25:15.884Z,3.83
2023-04-07T06:27:43.186Z,5.15
2023-04-07T06:30:11.021Z,3.78
2023-04-07T06:32:38.270Z,4.50
2023-04-07T06:35:05.919Z,3.95
2023-04-07T06:37:34.436Z,3.78
2023-04-07T06:40:01.701Z,3.72
2023-04-07T06:42:28.907Z,3.70
2023-04-07T06:44:56.086Z,4.32
2023-04-07T06:47:24.107Z,4.05
2023-04-07T06:49:51.422Z,3.42
2023-04-07T06:52:18.656Z,3.25
2023-04-07T06:54:47.192Z,3.97
2023-04-07T06:57:14.715Z,3.35
2023-04-07T06:59:41.913Z,3.67
2023-04-07T07:02:09.432Z,3.72
2023-04-07T07:04:36.755Z,3.60
2023-04-07T07:07:04.114Z,3.50
2023-04-07T07:09:31.336Z,3.33
2023-04-07T07:12:03.474Z,3.25
2023-04-07T07:14:31.306Z,3.55
2023-04-07T07:16:58.567Z,4.60
2023-04-07T07:19:25.817Z,5.03
2023-04-07T07:21:53.024Z,3.67
2023-04-07T07:24:20.216Z,3.30
2023-04-07T07:26:47.458Z,3.30
2023-04-07T07:29:16.009Z,3.97
2023-04-07T07:31:43.495Z,3.25
2023-04-07T07:34:10.753Z,3.78
2023-04-07T07:36:37.997Z,3.28
2023-04-07T07:39:05.410Z,3.25
2023-04-07T07:41:32.607Z,3.17
2023-04-07T07:43:59.828Z,3.78
2023-04-07T07:46:28.396Z,3.75
2023-04-07T07:48:55.617Z,3.13
2023-04-07T07:51:22.883Z,3.60
2023-04-07T07:53:50.294Z,5.10
2023-04-07T07:56:17.598Z,4.15
2023-04-07T07:58:44.898Z,3.15
2023-04-07T08:01:12.109Z,3.25
2023-04-07T08:03:40.820Z,3.80
2023-04-07T08:06:09.342Z,3.83
2023-04-07T08:08:36.582Z,3.63
2023-04-07T08:11:03.939Z,3.72
2023-04-07T08:13:31.192Z,3.05
2023-04-07T08:15:58.531Z,3.30
2023-04-07T08:18:25.835Z,4.13
2023-04-07T08:20:54.362Z,3.47
2023-04-07T08:23:21.566Z,3.70
2023-04-07T08:25:48.775Z,3.50
2023-04-07T08:28:15.979Z,3.40
2023-04-07T08:30:43.170Z,3.72
2023-04-07T08:33:10.585Z,3.08
2023-04-07T08:35:37.828Z,3.55
2023-04-07T08:38:07.759Z,2.50
2023-04-07T08:40:35.188Z,3.53
2023-04-07T08:43:02.472Z,3.00
2023-04-07T08:45:29.948Z,4.35
2023-04-07T08:47:57.709Z,4.28
2023-04-07T08:50:24.977Z,3.60
2023-04-07T08:52:56.561Z,3.67
2023-04-07T08:55:25.992Z,3.05
2023-04-07T08:57:53.306Z,3.45
2023-04-07T09:00:20.682Z,3.42
2023-04-07T09:02:49.288Z,3.35
2023-04-07T09:05:16.654Z,3.75
2023-04-07T09:07:44.166Z,2.90
2023-04-07T09:10:11.486Z,3.95
2023-04-07T09:12:39.992Z,3.50
2023-04-07T09:15:07.882Z,4.32
2023-04-07T09:17:35.201Z,4.15
2023-04-07T09:20:02.597Z,3.63
2023-04-07T09:22:36.544Z,3.28
2023-04-07T09:25:16.831Z,4.90
2023-04-07T09:27:56.132Z,3.45
2023-04-07T09:30:23.768Z,4.43
2023-04-07T09:32:51.118Z,3.97
2023-04-07T09:35:18.355Z,3.45
2023-04-07T09:37:45.579Z,3.30
2023-04-07T09:40:12.888Z,4.10
2023-04-07T09:42:46.302Z,4.13
2023-04-07T09:45:21.112Z,4.35
2023-04-07T09:47:58.524Z,3.65
2023-04-07T09:50:32.408Z,3.50
2023-04-07T09:52:59.669Z,3.80
2023-04-07T09:55:27.134Z,3.53
2023-04-07T09:57:55.285Z,4.32
2023-04-07T10:00:23.984Z,3.70
2023-04-07T10:02:53.091Z,3.60
2023-04-07T10:05:21.979Z,3.77
2023-04-07T10:07:49.266Z,4.50
2023-04-07T10:10:16.588Z,5.03
2023-04-07T10:12:43.789Z,3.97
2023-04-07T10:15:12.442Z,3.70
2023-04-07T10:17:41.036Z,5.93
2023-04-07T10:20:08.774Z,4.53
2023-04-07T10:22:36.471Z,4.25
2023-04-07T10:25:05.192Z,3.90
2023-04-07T10:27:33.045Z,5.55
2023-04-07T10:30:00.294Z,4.22
2023-04-07T10:32:27.574Z,3.63
2023-04-07T10:34:59.438Z,4.05
2023-04-07T10:37:27.759Z,5.05
2023-04-07T10:42:30.309Z,4.18
2023-04-07T10:44:59.816Z,5.68
2023-04-07T10:47:27.323Z,4.43
2023-04-07T10:50:12.489Z,3.83
2023-04-07T10:52:41.011Z,3.55
2023-04-07T10:55:26.828Z,3.65
2023-04-07T10:58:12.523Z,4.53
2023-04-07T11:00:39.782Z,4.70
2023-04-07T11:03:11.205Z,4.00
2023-04-07T11:05:38.814Z,5.07
2023-04-07T11:08:07.785Z,5.57
2023-04-07T11:10:35.052Z,4.18
2023-04-07T11:13:02.965Z,4.28
2023-04-07T11:15:30.254Z,5.28
2023-04-07T11:18:13.677Z,4.45
2023-04-07T11:20:43.338Z,4.63
2023-04-07T11:23:12.942Z,4.85
2023-04-07T11:25:40.207Z,5.15
2023-04-07T11:28:07.510Z,4.82
2023-04-07T11:30:36.081Z,4.53
2023-04-07T11:33:03.582Z,4.28
2023-04-07T11:35:31.167Z,3.67
2023-04-07T11:37:59.005Z,3.40
2023-04-07T11:40:35.025Z,3.97
2023-04-07T11:43:02.662Z,4.43
2023-04-07T11:45:29.921Z,3.97
2023-04-07T11:47:57.166Z,5.05
2023-04-07T11:50:40.491Z,4.65
2023-04-07T11:53:07.722Z,3.97
2023-04-07T11:55:36.232Z,5.97
2023-04-07T11:58:06.635Z,5.15
2023-04-07T12:00:33.825Z,4.45
2023-04-07T12:03:10.084Z,6.28
2023-04-07T12:05:42.934Z,5.78
2023-04-07T12:08:10.168Z,5.72
2023-04-07T12:10:40.444Z,4.93
2023-04-07T12:13:08.180Z,5.00
2023-04-07T12:15:35.421Z,5.65
2023-04-07T12:18:03.298Z,3.97
2023-04-07T12:20:30.685Z,5.85
2023-04-07T12:22:58.696Z,4.78
2023-04-07T12:25:26.285Z,4.35
2023-04-07T12:27:54.817Z,5.22
2023-04-07T12:30:22.405Z,4.18
2023-04-07T12:32:49.736Z,4.38
2023-04-07T12:35:16.955Z,4.32
2023-04-07T12:37:44.121Z,6.78
2023-04-07T12:40:11.898Z,11.23
2023-04-07T12:42:39.110Z,7.63
2023-04-07T12:45:08.349Z,6.22
2023-04-07T12:47:35.579Z,5.40
2023-04-07T12:50:02.877Z,5.03
2023-04-07T12:52:30.566Z,5.35
2023-04-07T12:54:58.422Z,5.05
2023-04-07T12:57:25.630Z,5.65
2023-04-07T12:59:53.180Z,4.55
2023-04-07T13:02:21.881Z,4.93
2023-04-07T13:04:49.172Z,4.88
2023-04-07T13:07:16.436Z,7.05
2023-04-07T13:09:44.033Z,6.57
2023-04-07T13:12:12.093Z,4.43
2023-04-07T13:14:49.405Z,4.32
2023-04-07T13:17:25.989Z,6.07
2023-04-07T13:19:53.244Z,6.70
2023-04-07T13:22:22.152Z,6.90
2023-04-07T13:24:51.510Z,5.20
2023-04-07T13:27:18.753Z,5.65
2023-04-07T13:29:46.216Z,5.55
2023-04-07T13:32:14.801Z,4.60
2023-04-07T13:34:43.824Z,5.28
2023-04-07T13:37:11.042Z,4.47
2023-04-07T13:39:38.237Z,6.60
2023-04-07T13:42:05.740Z,5.63
2023-04-07T13:44:33.132Z,4.55
2023-04-07T13:47:00.451Z,5.90
2023-04-07T13:49:28.010Z,5.05
2023-04-07T13:51:56.503Z,4.50
2023-04-07T13:54:23.875Z,4.38
2023-04-07T13:56:51.373Z,4.43
2023-04-07T13:59:18.603Z,5.95
2023-04-07T14:01:45.974Z,4.32
2023-04-07T14:04:13.369Z,3.60
2023-04-07T14:06:40.653Z,3.80
2023-04-07T14:09:09.270Z,4.15
2023-04-07T14:11:36.789Z,4.57
2023-04-07T14:14:04.117Z,4.40
2023-04-07T14:16:31.649Z,4.10
2023-04-07T14:18:58.841Z,4.25
2023-04-07T14:21:27.399Z,4.93
2023-04-07T14:23:54.756Z,4.95
2023-04-07T14:26:23.374Z,3.58
2023-04-07T14:28:50.588Z,3.50
2023-04-07T14:31:17.997Z,4.18
2023-04-07T14:33:45.420Z,3.53
2023-04-07T14:36:15.381Z,5.38
2023-04-07T14:38:42.700Z,4.47
2023-04-07T14:41:10.593Z,4.00
2023-04-07T14:43:39.539Z,3.70
2023-04-07T14:46:06.890Z,4.43
2023-04-07T14:48:34.157Z,4.03
2023-04-07T14:51:09.232Z,4.22
2023-04-07T14:53:37.158Z,4.38
2023-04-07T14:56:04.960Z,3.63
2023-04-07T14:58:32.407Z,4.47
2023-04-07T15:01:01.135Z,3.95
2023-04-07T15:03:29.037Z,4.43
2023-04-07T15:05:56.341Z,3.97
2023-04-07T15:08:23.590Z,4.30
2023-04-07T15:10:50.797Z,3.33
2023-04-07T15:13:18.037Z,3.47
2023-04-07T15:15:45.336Z,4.43
2023-04-07T15:18:13.998Z,3.35
2023-04-07T15:20:41.256Z,3.88
2023-04-07T15:23:08.529Z,3.83
2023-04-07T15:25:35.756Z,3.60
2023-04-07T15:28:03.004Z,4.13
2023-04-07T15:30:33.152Z,3.58
2023-04-07T15:33:01.541Z,5.05
2023-04-07T15:35:30.191Z,4.10
2023-04-07T15:37:57.444Z,4.07
2023-04-07T15:40:24.662Z,2.97
2023-04-07T15:42:51.968Z,4.13
2023-04-07T15:45:19.199Z,3.30
2023-04-07T15:47:46.446Z,3.15
2023-04-07T15:50:13.672Z,3.42
2023-04-07T15:52:42.193Z,5.03
2023-04-07T15:55:09.926Z,3.78
2023-04-07T15:57:37.181Z,3.67
2023-04-07T16:00:05.228Z,4.32
2023-04-07T16:02:32.579Z,2.75
2023-04-07T16:04:59.934Z,3.40
2023-04-07T16:07:27.371Z,3.80
2023-04-07T16:09:55.902Z,3.33
2023-04-07T16:12:23.212Z,3.63
2023-04-07T16:14:50.919Z,4.88
2023-04-07T16:17:18.132Z,3.47
2023-04-07T16:19:45.462Z,3.50
2023-04-07T16:24:39.949Z,3.67
2023-04-07T16:27:08.472Z,2.92
2023-04-07T16:29:35.801Z,3.28
2023-04-07T16:32:04.292Z,2.92
2023-04-07T16:34:31.608Z,3.03
2023-04-07T16:36:58.845Z,2.83
2023-04-07T16:39:27.523Z,2.92
2023-04-07T16:41:56.616Z,3.38
2023-04-07T16:44:25.909Z,3.40
2023-04-07T16:46:53.769Z,3.00
2023-04-07T16:49:21.025Z,4.53
2023-04-07T16:51:48.250Z,3.53
2023-04-07T16:54:15.542Z,3.28
2023-04-07T16:56:42.750Z,3.15
2023-04-07T16:59:09.962Z,3.60
2023-04-07T17:01:41.959Z,2.75
2023-04-07T17:04:09.634Z,3.13
2023-04-07T17:06:36.999Z,3.17
2023-04-07T17:09:04.258Z,3.05
2023-04-07T17:11:31.482Z,3.60
2023-04-07T17:13:58.666Z,3.58
2023-04-07T17:16:26.177Z,3.22
2023-04-07T17:18:54.783Z,3.25
2023-04-07T17:21:22.004Z,2.88
2023-04-07T17:23:49.404Z,3.38
2023-04-07T17:26:17.058Z,4.15
2023-04-07T17:28:44.935Z,3.55
2023-04-07T17:31:13.111Z,3.28
2023-04-07T17:33:40.323Z,3.88
2023-04-07T17:36:08.923Z,3.97
2023-04-07T17:38:36.190Z,2.78
2023-04-07T17:41:04.283Z,3.22
2023-04-07T17:43:31.657Z,3.72
2023-04-07T17:45:58.901Z,3.38
2023-04-07T17:48:26.487Z,3.58
2023-04-07T17:50:53.692Z,3.25
2023-04-07T17:53:22.223Z,3.20
2023-04-07T17:55:49.699Z,3.33
2023-04-07T17:58:17.128Z,3.10
2023-04-07T18:00:44.363Z,3.15
2023-04-07T18:03:14.049Z,2.70
2023-04-07T18:05:43.660Z,3.45
2023-04-07T18:08:10.904Z,3.30
2023-04-07T18:10:39.410Z,2.95
2023-04-07T18:13:07.004Z,3.22
2023-04-07T18:15:34.222Z,3.65
2023-04-07T18:18:02.311Z,2.95
2023-04-07T18:20:29.559Z,2.80
2023-04-07T18:22:57.073Z,3.00
2023-04-07T18:25:24.263Z,3.50
2023-04-07T18:27:53.238Z,3.05
2023-04-07T18:30:21.301Z,4.18
2023-04-07T18:32:49.323Z,2.70
2023-04-07T18:35:16.744Z,3.40
2023-04-07T18:37:44.426Z,2.72
2023-04-07T18:40:12.146Z,2.78
2023-04-07T18:42:39.391Z,3.58
2023-04-07T18:45:08.793Z,3.15
2023-04-07T18:47:36.054Z,3.25
2023-04-07T18:50:03.290Z,3.22
2023-04-07T18:52:30.848Z,3.20
2023-04-07T18:54:58.877Z,2.95
2023-04-07T18:57:26.113Z,3.05
2023-04-07T18:59:53.537Z,3.03
2023-04-07T19:02:22.280Z,2.67
2023-04-07T19:04:50.387Z,2.85
2023-04-07T19:07:17.615Z,3.08
2023-04-07T19:09:45.240Z,3.10
2023-04-07T19:12:12.471Z,2.60
2023-04-07T19:14:39.736Z,3.67
2023-04-07T19:17:06.934Z,3.03
2023-04-07T19:19:35.509Z,3.05
2023-04-07T19:22:02.754Z,3.38
2023-04-07T19:24:29.961Z,3.33
2023-04-07T19:26:57.729Z,3.20
2023-04-07T19:29:24.920Z,3.75
2023-04-07T19:31:52.888Z,2.63
2023-04-07T19:34:20.368Z,3.03
2023-04-07T19:36:48.895Z,3.53
2023-04-07T19:39:16.117Z,2.70
2023-04-07T19:41:43.327Z,2.65
2023-04-07T19:44:10.747Z,3.13
2023-04-07T19:46:38.127Z,3.33
2023-04-07T19:49:05.340Z,3.20
2023-04-07T19:51:32.976Z,2.85
2023-04-07T19:54:01.503Z,2.95
2023-04-07T19:56:28.735Z,4.30
2023-04-07T19:58:55.957Z,3.22
2023-04-07T20:01:23.255Z,3.20
2023-04-07T20:03:50.636Z,3.10
2023-04-07T20:06:18.969Z,2.88
2023-04-07T20:08:46.157Z,3.08
2023-04-07T20:11:14.728Z,3.10
2023-04-07T20:13:41.982Z,3.00
2023-04-07T20:16:09.742Z,2.53
2023-04-07T20:18:36.991Z,2.75
2023-04-07T20:21:05.993Z,3.13
2023-04-07T20:23:33.265Z,2.67
2023-04-07T20:26:01.450Z,2.88
2023-04-07T20:28:29.974Z,2.58
2023-04-07T20:30:57.172Z,3.13
2023-04-07T20:33:24.445Z,3.10
2023-04-07T20:35:52.474Z,3.78
2023-04-07T20:38:20.110Z,2.60
2023-04-07T20:40:47.338Z,2.67
2023-04-07T20:43:17.826Z,3.10
2023-04-07T20:45:47.340Z,2.90
2023-04-07T20:48:15.492Z,2.60
2023-04-07T20:50:42.757Z,2.65
2023-04-07T20:53:09.975Z,4.00
2023-04-07T20:55:37.206Z,3.05
2023-04-07T20:58:04.444Z,3.00
2023-04-07T21:00:31.714Z,2.83
2023-04-07T21:03:00.464Z,2.60
2023-04-07T21:05:27.883Z,3.47
2023-04-07T21:07:55.093Z,2.85
2023-04-07T21:10:22.305Z,4.63
2023-04-07T21:12:49.532Z,3.92
2023-04-07T21:15:16.722Z,2.35
2023-04-07T21:17:43.986Z,3.42
2023-04-07T21:20:13.002Z,3.38
2023-04-07T21:22:40.219Z,2.65
2023-04-07T21:25:07.805Z,2.70
2023-04-07T21:27:35.905Z,4.22
2023-04-07T21:30:04.309Z,2.85
2023-04-07T21:32:31.543Z,2.63
2023-04-07T21:34:58.779Z,2.92
2023-04-07T21:37:27.435Z,2.60
2023-04-07T21:39:54.714Z,2.78
2023-04-07T21:42:22.060Z,2.47
2023-04-07T21:44:49.281Z,2.90
2023-04-07T21:47:17.391Z,2.53
2023-04-07T21:49:44.585Z,3.65
2023-04-07T21:52:11.791Z,2.95
2023-04-07T21:54:40.304Z,3.38
2023-04-07T21:57:07.599Z,2.88
2023-04-07T21:59:35.348Z,2.80
2023-04-07T22:02:02.862Z,2.70
2023-04-07T22:04:30.253Z,3.10
2023-04-07T22:06:58.021Z,3.95
2023-04-07T22:09:25.253Z,3.83
2023-04-07T22:11:53.954Z,2.50
2023-04-07T22:14:24.812Z,3.00
2023-04-07T22:16:52.027Z,2.75
2023-04-07T22:19:19.317Z,3.30
2023-04-07T22:21:47.482Z,3.17
2023-04-07T22:24:14.666Z,2.92
2023-04-07T22:26:41.888Z,3.42
2023-04-07T22:29:11.820Z,2.97
2023-04-07T22:31:39.122Z,2.25
2023-04-07T22:34:06.473Z,2.42
2023-04-07T22:36:34.223Z,2.63
2023-04-07T22:39:01.433Z,2.33
2023-04-07T22:41:28.648Z,2.97
2023-04-07T22:43:55.973Z,2.40
2023-04-07T22:46:24.526Z,3.08
2023-04-07T22:48:51.910Z,2.80
2023-04-07T22:51:19.255Z,2.88
2023-04-07T22:53:46.452Z,2.65
2023-04-07T22:56:13.677Z,3.10
2023-04-07T22:58:40.901Z,2.92
2023-04-07T23:01:08.138Z,2.50
2023-04-07T23:03:36.871Z,3.10
2023-04-07T23:06:04.194Z,2.45
2023-04-07T23:08:31.660Z,3.08
2023-04-07T23:10:58.851Z,2.40
2023-04-07T23:13:26.581Z,2.50
2023-04-07T23:15:53.809Z,2.33
2023-04-07T23:18:21.028Z,2.33
2023-04-07T23:20:52.734Z,2.40
2023-04-07T23:23:19.932Z,3.25
2023-04-07T23:25:47.439Z,2.45
2023-04-07T23:28:14.686Z,2.50
2023-04-07T23:30:41.893Z,2.42
2023-04-07T23:33:09.204Z,2.50
2023-04-07T23:35:36.459Z,2.67
2023-04-07T23:38:05.025Z,2.40
2023-04-07T23:40:32.249Z,2.45
2023-04-07T23:42:59.502Z,2.55
2023-04-07T23:45:26.688Z,2.22
2023-04-07T23:47:53.975Z,3.05
2023-04-07T23:50:21.224Z,2.85
2023-04-07T23:52:48.496Z,2.47
2023-04-07T23:55:17.068Z,2.30
2023-04-07T23:57:44.946Z,3.90
